»·PEaware :: N123SH KTEX-KWYS

N123SH :: KTEX-KWYS

FLIGHT INFORMATION

Flight Status: Arrived
Operator: Privately registered:
United States
More flights under this callsign
Pilot: Scott H. (43751)
Aircraft: BEECH AIRCRAFT BARON
(BE58)
More flights by this aircraft type
Origin: KTEX Telluride Regl
United States
Destination: KWYS Yellowstone
United States
More flights between these airports :: More routes between these airports
Route: ETL V382 JNC OCS DNW
File this flight plan on PilotEdge
Remarks: BE58 TURBO
Altitude:
(Current/Filed)
16,000ft
Speed:
(Current/Filed)
210kts
Departed: 04-May-23 09:12 AM
Arrived: 04-May-23 11:13 AM
Distance/Time
Traveled:
429nm/2:00
Distance/Time
To Go:
Arrived

Flight Plot

Page will automatically refresh every two minutes.

Flight plan parsing failed; only flown route is shown


Map Options




Map Legend


Flown Route
Filed Route
Departure Airport
Arrival Airport
Navaid (VOR, NDB)
Fix

Horizontal Profiles

Position Reports

Time Latitude Longitude Heading Altitude Ground
Speed
04-May-23 08:59 37.954342 -107.902789 102 9052ft 0kts
04-May-23 09:00 37.954342 -107.902789 102 9052ft 0kts
04-May-23 09:01 37.954291 -107.902644 135 9052ft 4kts
04-May-23 09:02 37.953488 -107.901215 113 9052ft 7kts
04-May-23 09:03 37.953200 -107.899015 112 9059ft 3kts
04-May-23 09:04 37.953186 -107.898983 122 9059ft 0kts
04-May-23 09:05 37.953186 -107.898983 122 9059ft 0kts
04-May-23 09:06 37.953186 -107.898983 122 9059ft 0kts
04-May-23 09:07 37.953186 -107.898983 122 9059ft 0kts
04-May-23 09:08 37.953186 -107.898983 122 9059ft 0kts
04-May-23 09:09 37.952897 -107.898583 131 9061ft 0kts
04-May-23 09:10 37.952289 -107.896744 146 9070ft 0kts
04-May-23 09:11 37.951891 -107.899608 284 9056ft 56kts
04-May-23 09:12 37.959667 -107.936961 285 9794ft 138kts
04-May-23 09:13 37.969786 -107.982456 281 11437ft 132kts
04-May-23 09:14 37.982255 -108.032344 281 12703ft 155kts
04-May-23 09:15 37.995862 -108.085835 282 14334ft 161kts
04-May-23 09:16 38.010614 -108.142905 282 15725ft 178kts
04-May-23 09:17 38.027368 -108.208145 283 15862ft 205kts
04-May-23 09:18 38.058009 -108.268423 334 15801ft 222kts
04-May-23 09:19 38.116153 -108.297772 336 15747ft 225kts
04-May-23 09:20 38.174196 -108.327774 336 15729ft 227kts
04-May-23 09:21 38.232917 -108.358269 335 15723ft 227kts
04-May-23 09:22 38.291337 -108.388560 335 15718ft 227kts
04-May-23 09:23 38.350501 -108.419333 336 15715ft 230kts
04-May-23 09:25 38.409881 -108.450279 335 15711ft 232kts
04-May-23 09:26 38.468664 -108.480981 335 15875ft 232kts
04-May-23 09:27 38.528563 -108.512299 335 15884ft 231kts
04-May-23 09:28 38.588204 -108.543531 335 15885ft 231kts
04-May-23 09:29 38.647528 -108.574712 334 15873ft 231kts
04-May-23 09:30 38.707196 -108.606086 335 15879ft 232kts
04-May-23 09:31 38.767157 -108.637661 335 15873ft 233kts
04-May-23 09:32 38.827098 -108.669315 335 15888ft 233kts
04-May-23 09:33 38.887155 -108.701030 334 15901ft 232kts
04-May-23 09:34 38.946689 -108.732618 335 15914ft 230kts
04-May-23 09:35 39.005757 -108.763920 334 15925ft 229kts
04-May-23 09:36 39.065267 -108.793608 349 15931ft 233kts
04-May-23 09:37 39.130156 -108.798568 355 15936ft 234kts
04-May-23 09:38 39.195510 -108.804105 355 15923ft 236kts
04-May-23 09:39 39.261313 -108.809682 355 15906ft 237kts
04-May-23 09:40 39.326955 -108.815316 355 15887ft 236kts
04-May-23 09:41 39.392519 -108.820911 355 15863ft 236kts
04-May-23 09:42 39.458293 -108.826566 355 15869ft 237kts
04-May-23 09:43 39.524452 -108.832295 355 15878ft 239kts
04-May-23 09:44 39.591174 -108.837961 355 15874ft 239kts
04-May-23 09:45 39.657333 -108.843728 355 15880ft 236kts
04-May-23 09:46 39.722702 -108.849320 355 15885ft 236kts
04-May-23 09:46 39.777233 -108.854070 354 15887ft 236kts
04-May-23 09:48 39.853476 -108.860673 355 15877ft 235kts
04-May-23 09:49 39.918430 -108.866266 355 15876ft 233kts
04-May-23 09:50 39.983020 -108.871913 355 15872ft 232kts
04-May-23 09:51 40.047261 -108.877538 354 15876ft 231kts
04-May-23 09:51 40.100759 -108.882163 354 15874ft 231kts
04-May-23 09:52 40.164847 -108.887781 354 15877ft 231kts
04-May-23 09:54 40.239945 -108.894332 354 15885ft 232kts
04-May-23 09:55 40.304858 -108.900061 354 15885ft 236kts
04-May-23 09:56 40.370031 -108.905816 354 15887ft 233kts
04-May-23 09:56 40.423848 -108.910538 354 15892ft 232kts
04-May-23 09:57 40.488185 -108.916299 354 15899ft 230kts
04-May-23 09:58 40.552275 -108.921888 354 15907ft 231kts
04-May-23 10:00 40.627537 -108.928566 354 15838ft 235kts
04-May-23 10:00 40.681498 -108.933368 354 15830ft 231kts
04-May-23 10:01 40.746026 -108.939132 355 15833ft 231kts
04-May-23 10:02 40.810113 -108.944848 354 15835ft 231kts
04-May-23 10:03 40.874226 -108.950600 354 15840ft 231kts
04-May-23 10:04 40.938588 -108.956324 354 15843ft 230kts
04-May-23 10:05 41.002596 -108.962058 355 15838ft 229kts
04-May-23 10:06 41.066179 -108.967785 354 15839ft 228kts
04-May-23 10:07 41.129608 -108.973474 354 15847ft 229kts
04-May-23 10:08 41.193279 -108.979267 355 15848ft 229kts
04-May-23 10:09 41.256929 -108.984973 354 15856ft 228kts
04-May-23 10:10 41.320198 -108.990719 355 15892ft 228kts
04-May-23 10:11 41.383620 -108.996465 355 15929ft 228kts
04-May-23 10:12 41.446999 -109.002268 354 15961ft 228kts
04-May-23 10:13 41.510146 -109.007980 355 15988ft 227kts
04-May-23 10:14 41.573240 -109.013813 355 15990ft 227kts
04-May-23 10:15 41.632261 -109.039261 334 15985ft 224kts
04-May-23 10:16 41.689442 -109.071661 334 15983ft 223kts
04-May-23 10:17 41.746556 -109.104203 334 15949ft 222kts
04-May-23 10:18 41.803629 -109.136777 334 15917ft 222kts
04-May-23 10:19 41.860964 -109.169574 334 15886ft 223kts
04-May-23 10:20 41.918027 -109.202265 334 15860ft 224kts
04-May-23 10:21 41.975363 -109.235167 334 15850ft 224kts
04-May-23 10:22 42.032725 -109.268155 335 15851ft 224kts
04-May-23 10:23 42.090085 -109.301207 335 15856ft 224kts
04-May-23 10:24 42.147431 -109.334358 335 15856ft 224kts
04-May-23 10:25 42.204760 -109.367503 335 15862ft 225kts
04-May-23 10:26 42.262702 -109.401100 335 15866ft 227kts
04-May-23 10:27 42.321008 -109.434998 335 15869ft 228kts
04-May-23 10:28 42.379644 -109.469114 335 15871ft 229kts
04-May-23 10:29 42.438440 -109.503419 336 15877ft 229kts
04-May-23 10:30 42.496621 -109.537431 336 15873ft 227kts
04-May-23 10:31 42.554289 -109.571232 336 15909ft 226kts
04-May-23 10:32 42.612290 -109.605244 336 15946ft 226kts
04-May-23 10:33 42.670173 -109.639300 337 15988ft 228kts
04-May-23 10:34 42.728461 -109.673667 337 16025ft 228kts
04-May-23 10:35 42.786841 -109.708110 338 16042ft 229kts
04-May-23 10:36 42.845288 -109.742717 338 16040ft 229kts
04-May-23 10:37 42.903524 -109.777269 339 16103ft 228kts
04-May-23 10:38 42.961993 -109.811988 339 16079ft 230kts
04-May-23 10:39 43.020924 -109.847060 339 16050ft 230kts
04-May-23 10:40 43.080549 -109.882665 339 16021ft 237kts
04-May-23 10:41 43.140766 -109.918679 340 15982ft 235kts
04-May-23 10:42 43.200363 -109.954425 340 15963ft 230kts
04-May-23 10:43 43.258447 -109.989268 340 15963ft 227kts
04-May-23 10:44 43.316221 -110.023972 340 15959ft 228kts
04-May-23 10:45 43.375001 -110.059536 340 15964ft 230kts
04-May-23 10:46 43.433701 -110.094965 340 15958ft 230kts
04-May-23 10:47 43.492025 -110.130297 340 15949ft 228kts
04-May-23 10:48 43.549981 -110.165449 340 15931ft 228kts
04-May-23 10:49 43.607968 -110.200699 340 15926ft 229kts
04-May-23 10:50 43.665539 -110.235879 340 16148ft 229kts
04-May-23 10:51 43.721555 -110.281262 322 16412ft 237kts
04-May-23 10:52 43.773434 -110.336163 325 16414ft 233kts
04-May-23 10:53 43.825143 -110.390794 325 16411ft 232kts
04-May-23 10:54 43.876607 -110.445229 324 16406ft 234kts
04-May-23 10:55 43.928328 -110.500150 324 16402ft 234kts
04-May-23 10:56 43.979715 -110.554800 325 16402ft 232kts
04-May-23 10:57 44.031212 -110.609717 325 16413ft 233kts
04-May-23 10:58 44.082747 -110.664738 324 16418ft 234kts
04-May-23 10:59 44.134369 -110.720014 324 16453ft 233kts
04-May-23 11:00 44.185923 -110.775394 325 16455ft 234kts
04-May-23 11:01 44.237581 -110.830922 325 16451ft 233kts
04-May-23 11:02 44.289578 -110.886964 324 15744ft 239kts
04-May-23 11:03 44.341355 -110.942925 324 14492ft 230kts
04-May-23 11:04 44.391137 -110.996836 324 13288ft 223kts
04-May-23 11:05 44.439488 -111.049271 323 12133ft 218kts
04-May-23 11:06 44.487170 -111.101235 322 10991ft 216kts
04-May-23 11:07 44.534231 -111.152439 320 9879ft 203kts
04-May-23 11:08 44.577451 -111.190861 359 9013ft 166kts
04-May-23 11:09 44.613341 -111.170895 31 8491ft 133kts
04-May-23 11:10 44.645573 -111.147456 26 7356ft 121kts
04-May-23 11:11 44.674508 -111.127359 26 6762ft 113kts
04-May-23 11:12 44.691622 -111.115161 74 6628ft 17kts
04-May-23 11:13 44.688746 -111.115368 144 6634ft 11kts
04-May-23 11:14 44.688643 -111.114360 205 6637ft 0kts

Navigation Log

Ident Type
Flight plan parsing failed, navigation log unavailable